Wilsona Gardens, California
Current Conditions -  °F | °C
As of 11:58 PM on Friday 24 Oct 2014 (Local Time) from KEDW Reporting Station
Clear Clear  
Wind Chill: 58°   Ceiling: Unl
Heat Index: 58°   Visibility: 10mi
Dew Point: 27°   Wind: 5mph
Humidity: 30%   Direction: 110°ESE
Pressure: 30.03"   Gusts: NA
Location:  34.7192°N, 117.884°W
Report Text: KEDW 250658Z AUTO 11004KT 10SM CLR 15/M03 A3003 RMK AO2 SLP153 T01471026
Loading
Personal Weather Stations






























Interactive Weather Map
Tropical Storm Tracking
New forecast layout! Learn more

10-Day Weather Forecast

Advertisements
Track Severe Weather on mobile